Time;durP1;ratioP1;P1;durP2;ratioP2;P2;SDS_P1;SDS_P2;PMS_P1;PMS_P2;Temp;Humidity;BMP_temperature;BMP_pressure;BME280_temperature;BME280_humidity;BME280_pressure;Samples;Min_cycle;Max_cycle;Signal;HPM_P1;HPM_P2
2023/06/21 00:00:15;;;;;;;6.73;4.17;;;19.40;99.90;;;;;;5031050;28;20535;-70
2023/06/21 00:02:45;;;;;;;6.73;4.20;;;19.40;99.90;;;;;;5031140;28;20182;-70
2023/06/21 00:05:11;;;;;;;14.83;5.00;;;19.30;99.90;;;;;;5030704;28;20487;-70
2023/06/21 00:07:40;;;;;;;16.77;4.40;;;19.20;99.90;;;;;;5031239;28;20424;-69
2023/06/21 00:10:08;;;;;;;8.07;5.07;;;19.20;99.90;;;;;;5030260;28;20201;-70
2023/06/21 00:12:35;;;;;;;12.53;5.30;;;19.20;99.90;;;;;;5030657;28;20433;-70
2023/06/21 00:15:02;;;;;;;9.73;4.00;;;19.20;99.90;;;;;;5039033;28;21315;-70
2023/06/21 00:17:27;;;;;;;10.20;4.40;;;19.20;99.90;;;;;;5036601;28;20425;-70
2023/06/21 00:19:55;;;;;;;8.40;4.77;;;19.20;99.90;;;;;;5031102;28;20461;-70
2023/06/21 00:22:23;;;;;;;20.43;6.00;;;19.20;99.90;;;;;;5030612;28;20182;-70
2023/06/21 00:24:49;;;;;;;10.47;4.83;;;19.20;99.90;;;;;;5038752;28;20945;-69
2023/06/21 00:27:18;;;;;;;10.83;5.00;;;19.20;99.90;;;;;;5028236;28;20426;-70
2023/06/21 00:29:44;;;;;;;8.10;4.80;;;19.20;99.90;;;;;;5027940;28;20191;-70
2023/06/21 00:32:10;;;;;;;11.07;5.20;;;19.20;99.90;;;;;;5023838;28;20422;-70
2023/06/21 00:34:35;;;;;;;10.37;5.60;;;19.20;99.90;;;;;;5012937;28;20178;-70
2023/06/21 00:37:04;;;;;;;8.13;4.60;;;19.20;99.90;;;;;;5030448;28;20205;-70
2023/06/21 00:39:30;;;;;;;6.77;4.37;;;19.20;99.90;;;;;;5030067;28;20193;-70
2023/06/21 00:41:56;;;;;;;8.27;4.30;;;19.20;99.90;;;;;;5029922;28;20417;-70
2023/06/21 00:44:22;;;;;;;9.30;4.60;;;19.10;99.90;;;;;;5032528;28;20579;-70
2023/06/21 00:46:48;;;;;;;16.53;4.40;;;19.10;99.90;;;;;;5025725;28;20513;-70
2023/06/21 00:49:14;;;;;;;6.47;4.27;;;18.90;99.90;;;;;;5030883;28;20201;-70
2023/06/21 00:51:41;;;;;;;10.43;4.60;;;18.90;99.90;;;;;;5029428;28;20479;-70
2023/06/21 00:54:07;;;;;;;5.97;4.73;;;18.80;99.90;;;;;;5030100;28;20194;-70
2023/06/21 00:56:33;;;;;;;8.63;4.50;;;18.80;99.90;;;;;;5012399;28;20457;-70
2023/06/21 00:58:59;;;;;;;5.53;3.83;;;18.70;99.90;;;;;;5030442;28;20451;-70
2023/06/21 01:01:26;;;;;;;8.20;4.30;;;18.70;99.90;;;;;;5029566;28;20206;-70
2023/06/21 01:03:53;;;;;;;7.50;4.93;;;18.70;99.90;;;;;;5030487;28;20612;-69
2023/06/21 01:06:33;;;;;;;10.63;4.50;;;18.60;99.90;;;;;;5030513;28;20890;-70
2023/06/21 01:09:28;;;;;;;8.97;4.77;;;18.50;99.90;;;;;;5030365;28;20471;-70
2023/06/21 01:12:19;;;;;;;7.83;4.57;;;18.50;99.90;;;;;;5030036;28;20728;-70
2023/06/21 01:15:06;;;;;;;11.50;5.40;;;18.40;99.90;;;;;;5038466;28;20428;-70
2023/06/21 01:17:35;;;;;;;5.57;4.33;;;18.40;99.90;;;;;;5036363;28;20543;-70
2023/06/21 01:20:08;;;;;;;6.90;4.37;;;18.40;99.90;;;;;;5030180;28;20453;-70
2023/06/21 01:22:55;;;;;;;11.97;6.40;;;18.40;99.90;;;;;;5029882;28;20421;-69
2023/06/21 01:25:56;;;;;;;7.27;4.40;;;18.40;99.90;;;;;;5020924;28;20885;-70
2023/06/21 01:28:53;;;;;;;7.60;4.30;;;18.40;99.90;;;;;;5020158;28;20440;-70
2023/06/21 01:31:20;;;;;;;6.90;4.27;;;18.40;99.90;;;;;;5012341;28;20917;-70
2023/06/21 01:33:46;;;;;;;9.60;5.00;;;18.30;99.90;;;;;;5030118;28;20425;-69
2023/06/21 01:36:12;;;;;;;6.23;4.10;;;18.30;99.90;;;;;;5030247;28;20425;-69
2023/06/21 01:38:38;;;;;;;9.73;5.00;;;18.20;99.90;;;;;;5029969;28;20421;-69
2023/06/21 01:41:03;;;;;;;8.20;4.60;;;18.20;99.90;;;;;;5028973;28;20809;-70
2023/06/21 01:43:30;;;;;;;6.77;4.10;;;18.20;99.90;;;;;;5030698;28;20233;-70
2023/06/21 01:45:59;;;;;;;10.93;5.30;;;18.20;99.90;;;;;;5046692;28;20185;-70
2023/06/21 01:48:25;;;;;;;11.20;5.40;;;18.20;99.90;;;;;;5034770;28;20690;-70
2023/06/21 01:50:52;;;;;;;6.10;4.30;;;18.10;99.90;;;;;;5033356;28;20424;-70
2023/06/21 01:53:18;;;;;;;8.07;4.27;;;18.10;99.90;;;;;;5033825;28;20437;-70
2023/06/21 01:55:48;;;;;;;8.60;4.07;;;18.10;99.90;;;;;;5033123;28;20429;-70
2023/06/21 01:58:15;;;;;;;16.00;4.83;;;18.10;99.90;;;;;;5033206;28;21130;-70
2023/06/21 02:00:41;;;;;;;18.17;4.27;;;18.10;99.90;;;;;;5015397;28;20587;-70
2023/06/21 02:03:10;;;;;;;5.80;4.33;;;18.10;99.90;;;;;;5033484;28;20891;-70
2023/06/21 02:05:36;;;;;;;9.10;4.80;;;18.00;99.90;;;;;;5033346;28;20452;-70
2023/06/21 02:08:08;;;;;;;9.73;4.03;;;18.00;99.90;;;;;;5033250;28;20780;-70
2023/06/21 02:10:34;;;;;;;13.10;5.73;;;18.00;99.90;;;;;;5032370;28;20436;-70
2023/06/21 02:13:00;;;;;;;9.73;4.63;;;18.00;99.90;;;;;;5032982;28;21105;-70
2023/06/21 02:15:25;;;;;;;8.73;4.50;;;18.00;99.90;;;;;;5043816;28;20435;-70
2023/06/21 02:17:51;;;;;;;8.73;3.93;;;17.90;99.90;;;;;;5037914;28;20556;-70
2023/06/21 02:20:19;;;;;;;7.57;4.30;;;17.90;99.90;;;;;;5033217;28;20210;-70
2023/06/21 02:22:45;;;;;;;7.87;4.70;;;17.90;99.90;;;;;;5032681;28;20421;-70
2023/06/21 02:25:13;;;;;;;7.17;4.43;;;17.90;99.90;;;;;;5043476;28;20506;-69
2023/06/21 02:27:39;;;;;;;10.30;4.50;;;17.90;99.90;;;;;;5032783;28;20782;-69
2023/06/21 02:30:06;;;;;;;7.53;4.33;;;17.90;99.90;;;;;;5015159;28;20476;-70
2023/06/21 02:32:32;;;;;;;9.70;5.30;;;17.90;99.90;;;;;;5032519;28;20493;-70
2023/06/21 02:34:59;;;;;;;9.50;4.03;;;17.90;99.90;;;;;;5033125;28;21156;-70
2023/06/21 02:37:25;;;;;;;7.43;4.10;;;17.80;99.90;;;;;;5032795;28;21214;-70
2023/06/21 02:39:50;;;;;;;10.47;4.53;;;17.80;99.90;;;;;;5031998;28;20468;-70
2023/06/21 02:42:16;;;;;;;7.17;4.57;;;17.80;99.90;;;;;;5032591;28;20198;-70
2023/06/21 02:44:41;;;;;;;6.47;4.40;;;17.80;99.90;;;;;;5037657;28;20173;-70
2023/06/21 02:47:07;;;;;;;9.00;4.43;;;17.80;99.90;;;;;;5042615;28;20183;-70
2023/06/21 02:49:36;;;;;;;10.60;4.60;;;17.80;99.90;;;;;;5032753;28;20216;-70
2023/06/21 02:52:03;;;;;;;10.47;5.47;;;17.70;99.90;;;;;;5032056;28;20212;-70
2023/06/21 02:54:29;;;;;;;9.27;4.80;;;17.80;99.90;;;;;;5031488;28;20571;-70
2023/06/21 02:56:55;;;;;;;7.33;4.80;;;17.80;99.90;;;;;;5031475;28;21069;-69
2023/06/21 02:59:20;;;;;;;12.70;4.50;;;17.80;99.90;;;;;;5032466;28;20435;-70
2023/06/21 03:01:48;;;;;;;20.83;4.93;;;17.80;99.90;;;;;;5031840;28;20289;-70
2023/06/21 03:04:18;;;;;;;9.40;5.10;;;17.80;99.90;;;;;;5031796;28;20198;-70
2023/06/21 03:06:44;;;;;;;13.10;4.30;;;17.90;99.90;;;;;;5031241;28;20465;-70
2023/06/21 03:09:09;;;;;;;8.10;4.80;;;17.80;99.90;;;;;;5030653;28;20444;-69
2023/06/21 03:11:35;;;;;;;7.43;4.30;;;17.80;99.90;;;;;;5030342;28;20183;-69
2023/06/21 03:14:01;;;;;;;10.03;4.10;;;17.80;99.90;;;;;;5038400;28;20178;-70
2023/06/21 03:16:26;;;;;;;7.30;3.77;;;17.70;99.90;;;;;;5038478;28;20201;-70
2023/06/21 03:18:52;;;;;;;12.93;3.80;;;17.80;99.90;;;;;;5013380;28;20198;-70
2023/06/21 03:21:17;;;;;;;6.43;4.40;;;17.80;99.90;;;;;;5012859;28;20217;-70
2023/06/21 03:23:43;;;;;;;10.80;5.47;;;17.80;99.90;;;;;;5039227;28;20182;-70
2023/06/21 03:26:09;;;;;;;7.57;4.27;;;17.80;99.90;;;;;;5032722;28;20260;-69
2023/06/21 03:28:35;;;;;;;10.50;4.90;;;17.90;99.90;;;;;;5031172;28;20252;-69
2023/06/21 03:31:00;;;;;;;11.37;4.80;;;17.90;99.90;;;;;;5030640;28;20218;-70
2023/06/21 03:33:27;;;;;;;8.60;4.63;;;17.90;99.90;;;;;;5031257;28;20194;-70
2023/06/21 03:35:52;;;;;;;9.97;4.40;;;18.00;99.90;;;;;;5030593;28;20193;-70
2023/06/21 03:38:18;;;;;;;8.03;4.53;;;17.90;99.90;;;;;;5028866;28;20520;-70
2023/06/21 03:40:45;;;;;;;11.90;5.60;;;18.00;99.90;;;;;;5029189;28;20210;-70
2023/06/21 03:43:10;;;;;;;27.47;6.50;;;18.00;99.90;;;;;;5028017;28;20422;-71
2023/06/21 03:45:36;;;;;;;12.40;6.10;;;18.00;99.90;;;;;;5030139;28;20421;-74
2023/06/21 03:48:05;;;;;;;10.33;6.00;;;18.00;99.90;;;;;;5011891;28;20702;-74
2023/06/21 03:50:32;;;;;;;8.53;5.13;;;18.00;99.90;;;;;;5030399;28;20562;-73
2023/06/21 03:52:57;;;;;;;18.13;6.87;;;17.90;99.90;;;;;;5030322;28;20502;-74
2023/06/21 03:55:23;;;;;;;8.43;5.33;;;17.80;99.90;;;;;;5029823;28;21128;-74
2023/06/21 03:57:49;;;;;;;8.33;5.37;;;17.80;99.90;;;;;;5030413;28;20198;-74
2023/06/21 04:00:16;;;;;;;13.10;5.97;;;17.70;99.90;;;;;;5012418;28;21000;-74
2023/06/21 04:02:42;;;;;;;12.87;5.07;;;17.70;99.90;;;;;;5030086;28;20174;-74
2023/06/21 04:05:10;;;;;;;7.73;5.20;;;17.70;99.90;;;;;;4992741;28;1096326;-74
2023/06/21 04:07:37;;;;;;;16.00;5.60;;;17.70;99.90;;;;;;5030817;28;20471;-74
2023/06/21 04:10:03;;;;;;;8.07;5.40;;;17.80;99.90;;;;;;5030352;28;20475;-74
2023/06/21 04:12:29;;;;;;;9.13;5.67;;;17.80;99.90;;;;;;5030486;28;20795;-74
2023/06/21 04:14:55;;;;;;;9.57;6.20;;;17.80;99.90;;;;;;5039218;28;20228;-74
2023/06/21 04:17:20;;;;;;;10.83;4.87;;;17.80;99.90;;;;;;5037070;28;20965;-74
2023/06/21 04:19:46;;;;;;;11.77;5.50;;;17.80;99.90;;;;;;5030883;28;20270;-74
2023/06/21 04:22:12;;;;;;;13.10;6.37;;;17.80;99.90;;;;;;5030721;28;20198;-74
2023/06/21 04:24:37;;;;;;;12.07;5.93;;;17.70;99.90;;;;;;5022277;28;20232;-73
2023/06/21 04:27:03;;;;;;;9.70;5.80;;;17.70;99.90;;;;;;5030422;28;20197;-73
2023/06/21 04:29:29;;;;;;;9.17;6.40;;;17.70;99.90;;;;;;5031969;28;20613;-74
2023/06/21 04:31:56;;;;;;;10.27;6.00;;;17.70;99.90;;;;;;5037895;28;20494;-73
2023/06/21 04:34:22;;;;;;;14.90;7.20;;;17.70;99.90;;;;;;5030658;28;20493;-74
2023/06/21 04:36:47;;;;;;;11.67;6.37;;;17.80;99.90;;;;;;5013123;28;20437;-74
2023/06/21 04:39:17;;;;;;;8.23;5.60;;;17.80;99.90;;;;;;5030164;28;20425;-73
2023/06/21 04:41:46;;;;;;;9.77;6.13;;;17.90;99.90;;;;;;5027366;28;20213;-74
2023/06/21 04:44:12;;;;;;;11.23;6.30;;;18.00;99.90;;;;;;5029980;28;20897;-74
2023/06/21 04:46:38;;;;;;;11.53;6.23;;;18.10;99.90;;;;;;5033569;28;20408;-74
2023/06/21 04:49:04;;;;;;;9.60;5.17;;;18.20;99.90;;;;;;5006658;28;20439;-74
2023/06/21 04:51:30;;;;;;;11.60;5.87;;;18.20;99.90;;;;;;5030156;28;20178;-73
2023/06/21 04:53:59;;;;;;;13.27;6.33;;;18.30;99.90;;;;;;5030170;28;20265;-73
2023/06/21 04:56:28;;;;;;;8.37;4.87;;;18.40;99.90;;;;;;5030309;28;20436;-74
2023/06/21 04:58:54;;;;;;;14.40;6.67;;;18.50;99.90;;;;;;5030649;28;20437;-73
2023/06/21 05:01:20;;;;;;;8.43;5.20;;;18.60;99.90;;;;;;5030190;28;20461;-73
2023/06/21 05:03:47;;;;;;;8.60;5.57;;;18.60;99.90;;;;;;5013001;28;20205;-73
2023/06/21 05:06:24;;;;;;;9.63;4.67;;;18.70;99.90;;;;;;5030485;28;20178;-73
2023/06/21 05:08:50;;;;;;;7.27;4.70;;;18.80;99.90;;;;;;5027140;28;20425;-73
2023/06/21 05:11:16;;;;;;;26.30;6.53;;;18.80;99.90;;;;;;5029001;28;20775;-73
2023/06/21 05:13:42;;;;;;;13.43;5.07;;;18.80;99.90;;;;;;5027097;28;20230;-73
2023/06/21 05:16:07;;;;;;;10.23;5.60;;;18.70;99.90;;;;;;5012267;28;20934;-73
2023/06/21 05:18:33;;;;;;;14.10;4.83;;;18.70;99.90;;;;;;5031311;28;20870;-73
2023/06/21 05:20:59;;;;;;;9.97;4.73;;;18.80;99.90;;;;;;5033919;28;20208;-73
2023/06/21 05:23:24;;;;;;;15.30;5.10;;;18.90;99.90;;;;;;5021944;28;20181;-72
2023/06/21 05:25:50;;;;;;;6.10;4.50;;;19.00;99.90;;;;;;5038504;28;20232;-73
2023/06/21 05:28:15;;;;;;;6.13;4.53;;;19.10;99.90;;;;;;5034786;28;20656;-72
2023/06/21 05:30:41;;;;;;;10.63;5.70;;;19.20;99.90;;;;;;5034492;28;20192;-72
2023/06/21 05:33:07;;;;;;;6.40;4.60;;;19.20;99.90;;;;;;5034750;28;20194;-72
2023/06/21 05:35:32;;;;;;;11.53;5.97;;;19.30;99.90;;;;;;5016161;28;20190;-72
2023/06/21 05:37:58;;;;;;;6.83;4.13;;;19.30;99.90;;;;;;5034511;28;20544;-72
2023/06/21 05:40:24;;;;;;;7.33;3.63;;;19.50;99.90;;;;;;5033633;28;20245;-72
2023/06/21 05:42:49;;;;;;;7.00;5.07;;;19.60;99.90;;;;;;5033572;28;20190;-72
2023/06/21 05:45:17;;;;;;;7.37;4.07;;;19.60;99.90;;;;;;5042563;28;20205;-72
2023/06/21 05:47:43;;;;;;;6.37;3.20;;;19.60;99.90;;;;;;5039676;28;20206;-72
2023/06/21 05:50:09;;;;;;;8.50;3.80;;;19.60;99.90;;;;;;5034039;28;20453;-72
2023/06/21 05:52:35;;;;;;;6.30;4.07;;;19.70;99.90;;;;;;5036943;28;20186;-72
2023/06/21 05:55:00;;;;;;;5.40;3.70;;;19.70;99.90;;;;;;5047421;28;20500;-72
2023/06/21 05:57:26;;;;;;;14.30;4.07;;;19.70;99.90;;;;;;5032429;28;20221;-73
2023/06/21 05:59:53;;;;;;;10.53;3.87;;;19.80;99.90;;;;;;5033307;28;20499;-72
2023/06/21 06:02:19;;;;;;;6.20;4.20;;;19.80;99.90;;;;;;5033260;28;20548;-73
2023/06/21 06:04:44;;;;;;;7.10;4.10;;;19.90;99.90;;;;;;5030392;28;20444;-73
2023/06/21 06:07:12;;;;;;;10.80;4.10;;;20.00;99.90;;;;;;5031376;28;20216;-72
2023/06/21 06:09:38;;;;;;;6.77;3.47;;;20.00;99.90;;;;;;5028787;28;20623;-72
2023/06/21 06:12:04;;;;;;;8.13;4.50;;;20.10;99.90;;;;;;5032662;28;20413;-72
2023/06/21 06:14:31;;;;;;;8.87;4.90;;;20.10;99.90;;;;;;5041185;28;21210;-73
2023/06/21 06:16:56;;;;;;;10.80;4.20;;;20.20;99.90;;;;;;5038523;28;20452;-72
2023/06/21 06:19:22;;;;;;;13.00;4.20;;;20.20;99.90;;;;;;5033196;28;20461;-73
2023/06/21 06:21:48;;;;;;;6.50;3.90;;;20.30;99.90;;;;;;5031304;28;20317;-73
2023/06/21 06:24:13;;;;;;;9.23;4.07;;;20.40;99.90;;;;;;5034989;28;20183;-72
2023/06/21 06:26:39;;;;;;;6.93;3.90;;;20.50;99.90;;;;;;5031186;28;20202;-72
2023/06/21 06:29:04;;;;;;;5.73;3.90;;;20.60;99.90;;;;;;5032521;28;20179;-72
2023/06/21 06:31:30;;;;;;;9.23;4.27;;;20.70;99.90;;;;;;5032783;28;20210;-72
2023/06/21 06:33:56;;;;;;;5.13;2.90;;;20.70;99.90;;;;;;5033099;28;20186;-72
2023/06/21 06:36:22;;;;;;;4.90;3.47;;;20.80;99.90;;;;;;5033301;28;20186;-72
2023/06/21 06:38:48;;;;;;;10.30;4.03;;;20.80;99.90;;;;;;5032964;28;20182;-72
2023/06/21 06:41:14;;;;;;;5.83;3.20;;;20.80;99.90;;;;;;5031861;28;20214;-72
2023/06/21 06:43:40;;;;;;;7.60;3.57;;;20.90;99.90;;;;;;5032585;28;20508;-72
2023/06/21 06:46:06;;;;;;;5.40;3.77;;;21.00;99.90;;;;;;5031349;28;20190;-72
2023/06/21 06:48:31;;;;;;;8.40;3.70;;;21.10;99.90;;;;;;5032772;28;20688;-72
2023/06/21 06:50:57;;;;;;;7.90;3.97;;;21.20;99.90;;;;;;5032312;28;20182;-72
2023/06/21 06:53:23;;;;;;;8.20;2.23;;;21.10;99.90;;;;;;5032742;28;20193;-72
2023/06/21 06:55:51;;;;;;;5.30;2.97;;;21.30;99.90;;;;;;5032067;28;20433;-72
2023/06/21 06:58:20;;;;;;;8.00;3.10;;;21.60;99.90;;;;;;5031112;28;20175;-72
2023/06/21 07:00:46;;;;;;;5.10;2.60;;;21.70;99.90;;;;;;5032080;28;20468;-67
2023/06/21 07:03:11;;;;;;;4.53;2.13;;;21.80;99.90;;;;;;5027969;28;20437;-67
2023/06/21 07:05:43;;;;;;;5.27;3.27;;;22.00;99.90;;;;;;5028880;28;20440;-67
2023/06/21 07:08:08;;;;;;;4.30;2.70;;;22.40;99.90;;;;;;5027595;28;20179;-67
2023/06/21 07:10:34;;;;;;;4.73;2.93;;;22.60;99.90;;;;;;5031368;28;20428;-67
2023/06/21 07:13:02;;;;;;;14.47;3.00;;;22.60;99.90;;;;;;5032077;28;20278;-67
2023/06/21 07:15:28;;;;;;;5.10;3.00;;;22.80;99.90;;;;;;5043191;28;21448;-67
2023/06/21 07:17:54;;;;;;;11.07;3.20;;;22.90;99.90;;;;;;5035752;28;20769;-65
2023/06/21 07:20:20;;;;;;;3.83;2.37;;;23.10;99.90;;;;;;5032304;28;20209;-67
2023/06/21 07:22:45;;;;;;;4.60;2.60;;;23.10;99.90;;;;;;5032027;28;20425;-66
2023/06/21 07:25:11;;;;;;;6.93;3.00;;;23.20;99.90;;;;;;5031801;28;20255;-67
2023/06/21 07:27:37;;;;;;;10.10;3.60;;;23.50;99.90;;;;;;5031531;28;20186;-66
2023/06/21 07:30:04;;;;;;;5.20;3.60;;;23.70;99.90;;;;;;5031452;28;20289;-66
2023/06/21 07:32:30;;;;;;;11.70;4.33;;;23.50;99.90;;;;;;5031732;28;20189;-67
2023/06/21 07:34:58;;;;;;;7.37;3.70;;;23.70;99.90;;;;;;5031859;28;20425;-66
2023/06/21 07:37:24;;;;;;;7.17;3.07;;;23.80;99.90;;;;;;5031810;28;20189;-66
2023/06/21 07:39:49;;;;;;;4.60;3.07;;;23.70;99.90;;;;;;5031181;28;20422;-66
2023/06/21 07:42:16;;;;;;;14.63;3.03;;;23.50;99.90;;;;;;5030338;28;21016;-66
2023/06/21 07:44:42;;;;;;;7.07;3.13;;;23.20;99.90;;;;;;5031864;28;20208;-66
2023/06/21 07:47:07;;;;;;;10.87;3.20;;;23.10;99.90;;;;;;5035859;28;20429;-66
2023/06/21 07:49:33;;;;;;;4.60;2.90;;;23.10;99.90;;;;;;5014021;28;20228;-66
2023/06/21 07:51:58;;;;;;;5.87;3.37;;;23.00;99.90;;;;;;5030894;28;20190;-65
2023/06/21 07:54:24;;;;;;;6.10;3.30;;;23.30;99.90;;;;;;5031389;28;20209;-66
2023/06/21 07:56:50;;;;;;;11.90;4.07;;;23.50;99.90;;;;;;5031195;28;20186;-66
2023/06/21 07:59:15;;;;;;;11.03;4.07;;;23.40;99.90;;;;;;5031671;28;20178;-66
2023/06/21 08:01:41;;;;;;;12.00;3.70;;;23.30;99.90;;;;;;5030952;28;20599;-66
2023/06/21 08:04:06;;;;;;;4.67;3.10;;;23.20;99.90;;;;;;5031519;28;20204;-66
2023/06/21 08:06:32;;;;;;;6.37;3.93;;;23.10;99.90;;;;;;5031293;28;20276;-68
2023/06/21 08:08:58;;;;;;;11.90;3.67;;;23.10;99.90;;;;;;5013124;28;20247;-67
2023/06/21 08:11:23;;;;;;;7.43;3.60;;;23.00;99.90;;;;;;5030620;28;20189;-68
2023/06/21 08:13:49;;;;;;;6.00;3.03;;;22.80;99.90;;;;;;5026172;28;20261;-67
2023/06/21 08:16:14;;;;;;;4.87;2.60;;;22.60;99.90;;;;;;5029453;28;20224;-67
2023/06/21 08:18:40;;;;;;;6.07;3.37;;;22.60;99.90;;;;;;5029045;28;20189;-68
2023/06/21 08:21:07;;;;;;;5.87;3.10;;;22.50;99.90;;;;;;5029962;28;20209;-68
2023/06/21 08:23:33;;;;;;;9.90;4.07;;;22.30;99.90;;;;;;5029497;28;20223;-68
2023/06/21 08:25:59;;;;;;;4.80;2.87;;;22.00;99.90;;;;;;5033812;28;20433;-68
2023/06/21 08:28:24;;;;;;;7.90;3.50;;;21.80;99.90;;;;;;5030927;28;20506;-68
2023/06/21 08:30:50;;;;;;;6.63;3.97;;;21.70;99.90;;;;;;5030717;28;20690;-68
2023/06/21 08:33:15;;;;;;;10.83;4.93;;;21.50;99.90;;;;;;5030810;28;20190;-69
2023/06/21 08:35:41;;;;;;;19.10;4.40;;;21.40;99.90;;;;;;5030538;28;20190;-69
2023/06/21 08:38:07;;;;;;;8.80;4.43;;;21.30;99.90;;;;;;5030955;28;20190;-69
2023/06/21 08:40:34;;;;;;;12.83;5.67;;;21.10;99.90;;;;;;5030237;28;20228;-69
2023/06/21 08:43:00;;;;;;;6.47;3.83;;;20.90;99.90;;;;;;5030633;28;20183;-69
2023/06/21 08:45:26;;;;;;;7.07;4.00;;;20.70;99.90;;;;;;5040715;28;20444;-70
2023/06/21 08:47:52;;;;;;;8.57;4.70;;;20.40;99.90;;;;;;5035180;28;20421;-70
2023/06/21 08:50:19;;;;;;;10.10;4.47;;;20.10;99.90;;;;;;5030539;28;20186;-70
2023/06/21 08:52:46;;;;;;;9.57;6.00;;;20.00;99.90;;;;;;5031494;28;20428;-70
2023/06/21 08:55:16;;;;;;;8.60;5.00;;;19.80;99.90;;;;;;5034438;28;20776;-70
2023/06/21 08:57:53;;;;;;;12.30;5.70;;;19.70;99.90;;;;;;5033966;28;20433;-71
2023/06/21 09:00:23;;;;;;;8.93;4.57;;;19.50;99.90;;;;;;5034455;28;20496;-71
2023/06/21 09:02:59;;;;;;;6.37;4.50;;;19.50;99.90;;;;;;5033414;28;20790;-70
2023/06/21 09:05:38;;;;;;;10.20;5.03;;;19.40;99.90;;;;;;5034549;28;20502;-70
2023/06/21 09:08:05;;;;;;;10.70;5.30;;;19.30;99.90;;;;;;5034597;28;20880;-73
2023/06/21 09:10:32;;;;;;;6.80;4.40;;;19.20;99.90;;;;;;5034372;28;20471;-72
2023/06/21 09:13:01;;;;;;;10.50;5.67;;;19.20;99.90;;;;;;5033198;28;20431;-71
2023/06/21 09:15:29;;;;;;;10.53;5.80;;;19.10;99.90;;;;;;5045178;28;20417;-72
2023/06/21 09:17:56;;;;;;;12.70;5.50;;;19.10;99.90;;;;;;5037048;28;20421;-72
2023/06/21 09:20:27;;;;;;;11.20;6.23;;;19.00;99.90;;;;;;5033707;28;20475;-71
2023/06/21 09:22:53;;;;;;;9.00;5.23;;;18.90;99.90;;;;;;5035259;28;20487;-72
2023/06/21 09:25:19;;;;;;;9.43;4.67;;;18.90;99.90;;;;;;5041843;28;20421;-72
2023/06/21 09:27:44;;;;;;;13.60;5.47;;;18.80;99.90;;;;;;5034030;28;20225;-72
2023/06/21 09:30:10;;;;;;;8.10;4.83;;;18.80;99.90;;;;;;5032955;28;20186;-72
2023/06/21 09:32:36;;;;;;;10.23;5.10;;;18.80;99.90;;;;;;5032891;28;20182;-72
2023/06/21 09:35:02;;;;;;;9.87;5.00;;;18.70;99.90;;;;;;5029662;28;20494;-72
2023/06/21 09:37:38;;;;;;;9.93;5.40;;;18.60;99.90;;;;;;5013506;28;20190;-72
2023/06/21 09:40:05;;;;;;;14.50;5.30;;;18.60;99.90;;;;;;5025946;28;20455;-71
2023/06/21 09:42:31;;;;;;;7.07;5.00;;;18.50;99.90;;;;;;5024234;28;20447;-71
2023/06/21 09:44:57;;;;;;;9.70;5.00;;;18.60;99.90;;;;;;5032011;28;20417;-72
2023/06/21 09:47:28;;;;;;;8.20;4.53;;;18.50;99.90;;;;;;5031345;28;20468;-72
2023/06/21 09:49:54;;;;;;;8.03;5.50;;;18.50;99.90;;;;;;5031551;28;20710;-72
2023/06/21 09:52:22;;;;;;;11.30;6.20;;;18.50;99.90;;;;;;5032014;28;20447;-72
2023/06/21 09:54:47;;;;;;;11.43;4.83;;;18.50;99.90;;;;;;5030787;28;20638;-72
2023/06/21 09:57:13;;;;;;;11.70;6.80;;;18.50;99.90;;;;;;5032921;28;20425;-72
2023/06/21 09:59:40;;;;;;;14.83;7.63;;;18.40;99.90;;;;;;5032624;28;20221;-72
2023/06/21 10:02:07;;;;;;;9.30;5.67;;;18.50;99.90;;;;;;5032090;28;20282;-72
2023/06/21 10:04:44;;;;;;;8.63;5.03;;;18.50;99.90;;;;;;5032205;28;20440;-72
2023/06/21 10:07:14;;;;;;;6.83;5.40;;;18.50;99.90;;;;;;5033830;28;20763;-72
2023/06/21 10:09:40;;;;;;;10.50;6.30;;;18.50;99.90;;;;;;5033123;28;20425;-72
2023/06/21 10:12:10;;;;;;;10.50;5.90;;;18.50;99.90;;;;;;5033191;28;20493;-73
2023/06/21 10:14:36;;;;;;;9.80;5.20;;;18.50;99.90;;;;;;5041588;28;20455;-72
2023/06/21 10:17:02;;;;;;;15.77;5.30;;;18.60;99.90;;;;;;5039276;28;20429;-72
2023/06/21 10:19:31;;;;;;;9.90;5.67;;;18.50;99.90;;;;;;5033081;28;20202;-73
2023/06/21 10:22:18;;;;;;;7.80;5.00;;;18.60;99.90;;;;;;5032896;28;20938;-72
2023/06/21 10:24:51;;;;;;;9.83;4.50;;;18.70;99.90;;;;;;5043373;28;20432;-72
2023/06/21 10:27:19;;;;;;;9.63;5.53;;;18.70;99.90;;;;;;5032921;28;20886;-72
2023/06/21 10:29:48;;;;;;;7.60;4.80;;;18.70;99.90;;;;;;5033222;28;20483;-72
2023/06/21 10:32:14;;;;;;;7.50;5.60;;;18.90;99.90;;;;;;5034206;28;20448;-72
2023/06/21 10:34:52;;;;;;;18.53;6.63;;;19.00;99.90;;;;;;5032760;28;20428;-72
2023/06/21 10:37:52;;;;;;;12.10;6.10;;;19.10;99.90;;;;;;5032877;28;20498;-72
2023/06/21 10:40:19;;;;;;;10.63;6.10;;;19.20;99.90;;;;;;5001186;28;20476;-71
2023/06/21 10:42:45;;;;;;;9.33;5.20;;;19.30;99.90;;;;;;5029607;28;20455;-72
2023/06/21 10:45:12;;;;;;;16.03;6.73;;;19.50;99.90;;;;;;5031965;28;20422;-71
2023/06/21 10:47:39;;;;;;;8.53;5.50;;;19.60;99.90;;;;;;5031728;28;20529;-71
2023/06/21 10:50:06;;;;;;;12.53;6.60;;;19.60;99.90;;;;;;5032116;28;20512;-71
2023/06/21 10:52:33;;;;;;;8.23;5.53;;;19.70;99.90;;;;;;5032061;28;20424;-71
2023/06/21 10:55:01;;;;;;;10.30;6.20;;;19.80;99.90;;;;;;5031738;28;20425;-71
2023/06/21 10:57:34;;;;;;;11.30;5.87;;;19.90;99.90;;;;;;5032688;28;20425;-70
2023/06/21 11:00:05;;;;;;;10.00;4.97;;;20.00;99.90;;;;;;5032519;28;20413;-71
2023/06/21 11:02:32;;;;;;;19.03;7.07;;;20.20;99.90;;;;;;5030164;28;20432;-70
2023/06/21 11:05:17;;;;;;;23.57;5.87;;;20.40;99.90;;;;;;5031236;28;20437;-71
2023/06/21 11:07:57;;;;;;;12.00;5.70;;;20.70;99.90;;;;;;5024121;28;20425;-71
2023/06/21 11:10:29;;;;;;;8.83;4.80;;;20.90;99.90;;;;;;5019415;28;20793;-71
2023/06/21 11:12:56;;;;;;;11.87;5.73;;;21.00;99.90;;;;;;5030769;28;20425;-70
2023/06/21 11:15:25;;;;;;;8.63;4.53;;;21.30;99.90;;;;;;5041545;28;20428;-70
2023/06/21 11:17:56;;;;;;;9.90;5.13;;;21.40;99.90;;;;;;5035712;28;20492;-70
2023/06/21 11:20:23;;;;;;;8.83;5.33;;;21.50;99.90;;;;;;5031942;28;20465;-70
2023/06/21 11:23:00;;;;;;;11.70;5.73;;;21.60;99.90;;;;;;5032258;28;20420;-70
2023/06/21 11:25:26;;;;;;;6.13;3.63;;;21.80;99.90;;;;;;5040191;28;20416;-71
2023/06/21 11:28:17;;;;;;;12.70;2.73;;;22.00;99.90;;;;;;5031846;28;20441;-71
2023/06/21 11:31:09;;;;;;;6.13;3.60;;;22.20;99.90;;;;;;5031493;28;20516;-71
2023/06/21 11:33:54;;;;;;;5.20;3.07;;;22.60;99.90;;;;;;5023069;28;20433;-71
2023/06/21 11:36:31;;;;;;;11.30;4.27;;;22.60;99.90;;;;;;5031537;28;20877;-69
2023/06/21 11:39:10;;;;;;;18.20;3.20;;;22.60;99.90;;;;;;5028227;28;20773;-71
2023/06/21 11:41:45;;;;;;;9.70;4.30;;;22.90;99.90;;;;;;5029966;28;20641;-70
2023/06/21 11:44:19;;;;;;;7.50;3.50;;;22.90;99.90;;;;;;5030407;28;20424;-71
2023/06/21 11:46:45;;;;;;;6.03;3.40;;;23.10;99.90;;;;;;5043853;28;20435;-71
2023/06/21 11:49:12;;;;;;;5.37;2.40;;;23.30;99.90;;;;;;5030306;28;20435;-71
2023/06/21 11:51:49;;;;;;;12.70;3.90;;;23.30;99.90;;;;;;5029019;28;20429;-71
2023/06/21 11:54:32;;;;;;;5.77;2.83;;;23.70;99.90;;;;;;5029966;28;20893;-71
2023/06/21 11:56:58;;;;;;;17.80;5.00;;;23.60;99.90;;;;;;5030168;28;20948;-71
2023/06/21 11:59:25;;;;;;;7.20;3.03;;;23.70;99.90;;;;;;5030417;28;20421;-71
2023/06/21 12:01:51;;;;;;;6.17;3.10;;;23.90;99.90;;;;;;5028933;28;20482;-71
2023/06/21 12:04:26;;;;;;;5.57;3.30;;;24.10;99.90;;;;;;5029882;28;20432;-71
2023/06/21 12:06:55;;;;;;;5.57;2.93;;;24.00;99.90;;;;;;5029929;28;20301;-72
2023/06/21 12:09:21;;;;;;;6.43;2.83;;;24.50;99.90;;;;;;5029727;28;20502;-71
2023/06/21 12:11:47;;;;;;;5.47;2.87;;;24.70;99.90;;;;;;5029609;28;20467;-72
2023/06/21 12:14:14;;;;;;;11.23;2.93;;;24.60;99.90;;;;;;5037967;28;20507;-72
2023/06/21 12:16:41;;;;;;;7.40;3.63;;;24.60;99.90;;;;;;5036024;28;20420;-72
2023/06/21 12:19:10;;;;;;;7.37;4.00;;;24.60;99.90;;;;;;5028898;28;20456;-71
2023/06/21 12:21:36;;;;;;;5.13;2.77;;;24.40;99.90;;;;;;5028708;28;20452;-72
2023/06/21 12:24:02;;;;;;;8.53;3.57;;;24.60;99.90;;;;;;5039112;28;20499;-72
2023/06/21 12:26:28;;;;;;;4.40;2.87;;;24.70;99.90;;;;;;5029797;28;20193;-72
2023/06/21 12:28:53;;;;;;;6.30;3.20;;;24.90;99.90;;;;;;5029219;28;20256;-72
2023/06/21 12:31:20;;;;;;;6.20;3.20;;;24.70;99.90;;;;;;5015955;28;20190;-72
2023/06/21 12:33:53;;;;;;;4.83;2.87;;;24.90;99.90;;;;;;5029249;28;20528;-72
2023/06/21 12:36:25;;;;;;;10.07;3.23;;;24.80;99.90;;;;;;5018761;28;20463;-72
2023/06/21 12:38:57;;;;;;;6.70;3.03;;;24.90;99.90;;;;;;5029021;28;20464;-72
2023/06/21 12:41:24;;;;;;;5.23;2.53;;;24.80;99.90;;;;;;5029597;28;21044;-72
2023/06/21 12:43:53;;;;;;;7.00;3.43;;;24.60;99.90;;;;;;5030820;28;20424;-71
2023/06/21 12:46:20;;;;;;;6.60;3.17;;;24.40;99.90;;;;;;5045632;28;20446;-70